createdAt,value
2018-07-14T00:01:42.024Z,95468.08
2018-07-14T00:04:10.961Z,95471.02
2018-07-14T00:06:39.918Z,95470.63
2018-07-14T00:09:08.583Z,95470.05
2018-07-14T00:11:37.955Z,95466.53
2018-07-14T00:14:06.712Z,95476.69
2018-07-14T00:16:35.603Z,95474.16
2018-07-14T00:19:04.334Z,95482.19
2018-07-14T00:21:33.035Z,95473.36
2018-07-14T00:24:02.179Z,95467.89
2018-07-14T00:26:31.358Z,95469.08
2018-07-14T00:29:00.027Z,95460.84
2018-07-14T00:31:29.648Z,95459.28
2018-07-14T00:33:58.615Z,95460.83
2018-07-14T00:36:27.502Z,95467.31
2018-07-14T00:38:56.466Z,95458.31
2018-07-14T00:41:25.484Z,95461.44
2018-07-14T00:43:54.139Z,95459.07
2018-07-14T00:46:23.077Z,95459.66
2018-07-14T00:48:51.999Z,95459.30
2018-07-14T00:51:20.768Z,95457.71
2018-07-14T00:53:49.491Z,95452.02
2018-07-14T00:56:18.439Z,95454.78
2018-07-14T00:58:47.387Z,95447.73
2018-07-14T01:01:16.691Z,95450.26
2018-07-14T01:03:45.362Z,95450.26
2018-07-14T01:06:14.155Z,95458.11
2018-07-14T01:08:42.863Z,95450.85
2018-07-14T01:11:11.545Z,95443.02
2018-07-14T01:13:40.349Z,95448.31
2018-07-14T01:16:09.119Z,95452.42
2018-07-14T01:18:37.786Z,95450.83
2018-07-14T01:21:06.514Z,95451.03
2018-07-14T01:23:35.525Z,95456.55
2018-07-14T01:26:04.502Z,95407.98
2018-07-14T01:28:33.208Z,95456.94
2018-07-14T01:31:02.007Z,95456.72
2018-07-14T01:33:30.824Z,95462.01
2018-07-14T01:35:59.540Z,95464.55
2018-07-14T01:38:28.270Z,95469.06
2018-07-14T01:40:57.176Z,95475.33
2018-07-14T01:43:26.193Z,95478.06
2018-07-14T01:45:56.008Z,95476.13
2018-07-14T01:48:24.896Z,95474.34
2018-07-14T01:50:53.599Z,95476.91
2018-07-14T01:53:22.322Z,95471.02
2018-07-14T01:55:51.118Z,95478.84
2018-07-14T01:58:19.883Z,95471.63
2018-07-14T02:00:48.584Z,95476.13
2018-07-14T02:03:17.479Z,95475.92
2018-07-14T02:05:46.117Z,95476.12
2018-07-14T02:08:14.875Z,95480.44
2018-07-14T02:10:43.812Z,95471.62
2018-07-14T02:13:12.749Z,95474.16
2018-07-14T02:15:41.389Z,95481.80
2018-07-14T02:18:10.071Z,95476.31
2018-07-14T02:20:39.095Z,95478.47
2018-07-14T02:23:07.742Z,95479.86
2018-07-14T02:25:36.517Z,95169.82
2018-07-14T02:28:05.197Z,95471.80
2018-07-14T02:30:33.894Z,95470.64
2018-07-14T02:33:02.535Z,95469.27
2018-07-14T02:35:31.191Z,95466.91
2018-07-14T02:37:59.874Z,95468.88
2018-07-14T02:40:29.091Z,95478.06
2018-07-14T02:42:57.811Z,95473.94
2018-07-14T02:45:26.563Z,95471.58
2018-07-14T02:47:55.885Z,95474.92
2018-07-14T02:50:24.519Z,95478.63
2018-07-14T02:52:53.448Z,95474.09
2018-07-14T02:55:22.229Z,95469.03
2018-07-14T02:57:51.021Z,95469.16
2018-07-14T03:00:19.940Z,95464.11
2018-07-14T03:02:48.716Z,95468.25
2018-07-14T03:05:17.371Z,95470.20
2018-07-14T03:07:46.116Z,95467.22
2018-07-14T03:10:14.860Z,95467.02
2018-07-14T03:12:43.503Z,95475.23
2018-07-14T03:15:12.440Z,95464.86
2018-07-14T03:17:41.479Z,95463.67
2018-07-14T03:20:10.396Z,95463.30
2018-07-14T03:22:39.071Z,95465.52
2018-07-14T03:25:07.755Z,95463.36
2018-07-14T03:27:37.125Z,95475.05
2018-07-14T03:30:07.286Z,95484.33
2018-07-14T03:32:36.033Z,95474.14
2018-07-14T03:35:05.063Z,95480.58
2018-07-14T03:37:33.848Z,95478.25
2018-07-14T03:40:02.838Z,95477.85
2018-07-14T03:42:31.508Z,95480.53
2018-07-14T03:45:00.652Z,95481.97
2018-07-14T03:47:29.356Z,95483.55
2018-07-14T03:49:58.091Z,95491.41
2018-07-14T03:52:26.831Z,95483.94
2018-07-14T03:54:55.516Z,95486.67
2018-07-14T03:57:24.206Z,95489.80
2018-07-14T03:59:53.107Z,95494.31
2018-07-14T04:02:21.788Z,95495.27
2018-07-14T04:04:50.466Z,95494.70
2018-07-14T04:07:19.335Z,95499.00
2018-07-14T04:09:48.178Z,95497.06
2018-07-14T04:12:16.939Z,95497.06
2018-07-14T04:14:46.019Z,95498.42
2018-07-14T04:17:14.702Z,95504.91
2018-07-14T04:19:43.440Z,95501.75
2018-07-14T04:22:12.222Z,95508.42
2018-07-14T04:24:40.975Z,95511.95
2018-07-14T04:27:09.703Z,95512.55
2018-07-14T04:29:38.423Z,95511.95
2018-07-14T04:32:07.499Z,95514.70
2018-07-14T04:34:36.192Z,95509.62
2018-07-14T04:37:04.913Z,95510.02
2018-07-14T04:39:33.607Z,95512.75
2018-07-14T04:42:02.300Z,95511.56
2018-07-14T04:44:31.004Z,95517.65
2018-07-14T04:46:59.975Z,95514.12
2018-07-14T04:49:28.660Z,95515.88
2018-07-14T04:51:57.354Z,95521.55
2018-07-14T04:54:25.995Z,95512.35
2018-07-14T04:56:54.733Z,95516.69
2018-07-14T04:59:23.377Z,95504.70
2018-07-14T05:01:53.276Z,95506.67
2018-07-14T05:04:22.415Z,95508.22
2018-07-14T05:06:51.374Z,95503.11
2018-07-14T05:09:20.792Z,95507.95
2018-07-14T05:11:50.163Z,95509.27
2018-07-14T05:14:19.550Z,95512.55
2018-07-14T05:16:49.249Z,95504.98
2018-07-14T05:19:18.474Z,95510.88
2018-07-14T05:21:47.613Z,95504.89
2018-07-14T05:24:17.140Z,95511.44
2018-07-14T05:26:46.081Z,95511.08
2018-07-14T05:29:15.501Z,95509.79
2018-07-14T05:31:44.692Z,95517.19
2018-07-14T05:34:13.835Z,95516.23
2018-07-14T05:36:43.563Z,95511.69
2018-07-14T05:39:12.477Z,95514.31
2018-07-14T05:41:41.332Z,95508.84
2018-07-14T05:44:10.451Z,95513.63
2018-07-14T05:46:39.255Z,95521.41
2018-07-14T05:49:08.187Z,95514.82
2018-07-14T05:51:37.992Z,95514.97
2018-07-14T05:54:07.136Z,95517.49
2018-07-14T05:56:36.219Z,95518.63
2018-07-14T05:59:05.135Z,95516.41
2018-07-14T06:01:34.945Z,95512.33
2018-07-14T06:04:04.060Z,95519.18
2018-07-14T06:06:33.419Z,95519.80
2018-07-14T06:09:03.977Z,95521.58
2018-07-14T06:11:32.848Z,95528.44
2018-07-14T06:14:01.710Z,95524.57
2018-07-14T06:16:30.630Z,95518.61
2018-07-14T06:19:00.510Z,95520.84
2018-07-14T06:21:30.242Z,95525.20
2018-07-14T06:23:59.585Z,95541.73
2018-07-14T06:26:28.467Z,95524.66
2018-07-14T06:28:57.630Z,95522.41
2018-07-14T06:31:26.707Z,95523.95
2018-07-14T06:33:56.957Z,95520.38
2018-07-14T06:36:25.769Z,95524.42
2018-07-14T06:38:55.325Z,95524.12
2018-07-14T06:41:24.158Z,95525.70
2018-07-14T06:43:53.051Z,95522.82
2018-07-14T06:46:21.914Z,95528.89
2018-07-14T06:48:50.723Z,95526.17
2018-07-14T06:51:19.723Z,95540.03
2018-07-14T06:53:48.768Z,95534.53
2018-07-14T06:56:17.688Z,95531.48
2018-07-14T06:58:46.645Z,95524.83
2018-07-14T07:01:15.560Z,95528.99
2018-07-14T07:03:44.923Z,95529.70
2018-07-14T07:06:13.638Z,95532.50
2018-07-14T07:08:42.359Z,95541.37
2018-07-14T07:11:11.244Z,95530.64
2018-07-14T07:13:40.022Z,95532.55
2018-07-14T07:16:08.937Z,95534.59
2018-07-14T07:18:37.755Z,95534.84
2018-07-14T07:21:06.686Z,95540.16
2018-07-14T07:23:35.407Z,95539.22
2018-07-14T07:26:04.085Z,95528.84
2018-07-14T07:28:33.087Z,95537.34
2018-07-14T07:31:01.783Z,95531.52
2018-07-14T07:33:31.240Z,95525.95
2018-07-14T07:35:59.900Z,95531.59
2018-07-14T07:38:28.566Z,95515.91
2018-07-14T07:41:11.815Z,95516.80
2018-07-14T07:43:40.770Z,95523.89
2018-07-14T07:46:09.416Z,95521.13
2018-07-14T07:48:38.108Z,95519.17
2018-07-14T07:51:06.819Z,95518.67
2018-07-14T07:53:35.534Z,95523.70
2018-07-14T07:56:04.257Z,95531.61
2018-07-14T07:58:32.955Z,95529.06
2018-07-14T08:01:01.641Z,95521.64
2018-07-14T08:03:30.330Z,95533.53
2018-07-14T08:05:59.003Z,95528.64
2018-07-14T08:08:27.699Z,95526.07
2018-07-14T08:10:56.391Z,95526.26
2018-07-14T08:13:25.043Z,95519.93
2018-07-14T08:15:53.698Z,95517.38
2018-07-14T08:18:22.538Z,95514.23
2018-07-14T08:20:51.263Z,95507.70
2018-07-14T08:23:20.120Z,95508.03
2018-07-14T08:25:48.791Z,95516.84
2018-07-14T08:28:17.496Z,95517.64
2018-07-14T08:30:46.339Z,95514.27
2018-07-14T08:33:14.998Z,95506.59
2018-07-14T08:35:43.678Z,95509.50
2018-07-14T08:38:12.502Z,95515.52
2018-07-14T08:40:41.173Z,95520.52
2018-07-14T08:43:09.951Z,95522.34
2018-07-14T08:45:38.723Z,95518.19
2018-07-14T08:48:07.529Z,95510.42
2018-07-14T08:50:37.049Z,95514.84
2018-07-14T08:53:05.632Z,95507.09
2018-07-14T08:55:34.295Z,95509.55
2018-07-14T08:58:11.885Z,95495.06
2018-07-14T09:00:46.569Z,95494.82
2018-07-14T09:03:19.327Z,95509.44
2018-07-14T09:05:48.096Z,95526.77
2018-07-14T09:08:16.763Z,95507.48
2018-07-14T09:10:45.564Z,95510.00
2018-07-14T09:13:14.270Z,95513.46
2018-07-14T09:15:42.940Z,95506.65
2018-07-14T09:18:11.702Z,95512.72
2018-07-14T09:20:40.415Z,95507.98
2018-07-14T09:23:09.057Z,95498.97
2018-07-14T09:25:37.766Z,95495.02
2018-07-14T09:28:06.489Z,95498.38
2018-07-14T09:30:35.202Z,95501.05
2018-07-14T09:33:03.829Z,95497.74
2018-07-14T09:35:32.634Z,95491.75
2018-07-14T09:38:01.317Z,95498.34
2018-07-14T09:40:30.008Z,95500.44
2018-07-14T09:42:58.624Z,95501.52
2018-07-14T09:45:27.288Z,95498.95
2018-07-14T09:47:56.255Z,95496.43
2018-07-14T09:50:24.904Z,95420.02
2018-07-14T09:52:53.592Z,95497.09
2018-07-14T09:55:22.377Z,95495.87
2018-07-14T09:57:50.989Z,95495.64
2018-07-14T10:00:24.779Z,95486.50
2018-07-14T10:02:53.510Z,95485.57
2018-07-14T10:05:22.178Z,95475.45
2018-07-14T10:07:50.835Z,95470.06
2018-07-14T10:10:19.551Z,95469.00
2018-07-14T10:12:48.271Z,95468.01
2018-07-14T10:15:17.008Z,95477.02
2018-07-14T10:17:45.714Z,95479.77
2018-07-14T10:20:14.408Z,95467.34
2018-07-14T10:22:43.083Z,95468.02
2018-07-14T10:25:11.781Z,95461.47
2018-07-14T10:27:40.426Z,95470.12
2018-07-14T10:30:09.166Z,95471.77
2018-07-14T10:32:37.798Z,95469.14
2018-07-14T10:35:06.681Z,95468.11
2018-07-14T10:37:35.412Z,95473.42
2018-07-14T10:40:04.173Z,95472.52
2018-07-14T10:42:33.413Z,95470.21
2018-07-14T10:45:02.057Z,95466.37
2018-07-14T10:47:30.755Z,95462.09
2018-07-14T10:49:59.442Z,95463.20
2018-07-14T10:52:28.128Z,95463.29
2018-07-14T10:54:57.042Z,95465.61
2018-07-14T10:57:25.695Z,95462.47
2018-07-14T10:59:54.366Z,95464.81
2018-07-14T11:02:22.986Z,95458.47
2018-07-14T11:04:53.204Z,95457.31
2018-07-14T11:07:21.886Z,95451.45
2018-07-14T11:09:50.522Z,95450.63
2018-07-14T11:12:19.162Z,95463.59
2018-07-14T11:14:47.799Z,95414.24
2018-07-14T11:17:16.463Z,95454.52
2018-07-14T11:19:45.211Z,95444.60
2018-07-14T11:22:13.916Z,95450.95
2018-07-14T11:24:42.659Z,95441.25
2018-07-14T11:27:11.317Z,95442.00
2018-07-14T11:29:39.979Z,95436.84
2018-07-14T11:32:08.691Z,95436.45
2018-07-14T11:34:37.433Z,95432.86
2018-07-14T11:37:06.113Z,95429.51
2018-07-14T11:39:35.089Z,95433.42
2018-07-14T11:42:03.831Z,95424.55
2018-07-14T11:44:32.495Z,95414.75
2018-07-14T11:47:01.212Z,95415.11
2018-07-14T11:49:30.362Z,95420.43
2018-07-14T11:51:59.242Z,95416.61
2018-07-14T11:54:27.902Z,95417.23
2018-07-14T11:56:56.581Z,95415.52
2018-07-14T11:59:25.513Z,95418.94
2018-07-14T12:01:54.260Z,95416.80
2018-07-14T12:04:22.890Z,95417.10
2018-07-14T12:06:51.639Z,95407.95
2018-07-14T12:09:20.287Z,95405.66
2018-07-14T12:11:48.983Z,95410.86
2018-07-14T12:14:17.607Z,95408.48
2018-07-14T12:16:46.366Z,95411.41
2018-07-14T12:19:15.009Z,95403.39
2018-07-14T12:21:43.691Z,95400.44
2018-07-14T12:24:12.360Z,95399.77
2018-07-14T12:26:41.063Z,95403.76
2018-07-14T12:29:09.705Z,95403.75
2018-07-14T12:31:38.436Z,95406.41
2018-07-14T12:34:07.560Z,95402.16
2018-07-14T12:36:36.217Z,95400.27
2018-07-14T12:39:05.361Z,95402.70
2018-07-14T12:41:34.021Z,95404.75
2018-07-14T12:44:02.731Z,95403.19
2018-07-14T12:46:31.524Z,95393.92
2018-07-14T12:49:00.260Z,95383.27
2018-07-14T12:51:29.228Z,95387.38
2018-07-14T12:53:57.991Z,95391.58
2018-07-14T12:56:26.629Z,95387.70
2018-07-14T12:58:55.952Z,95383.16
2018-07-14T13:01:24.643Z,95379.13
2018-07-14T13:03:53.478Z,95374.75
2018-07-14T13:06:22.180Z,95377.83
2018-07-14T13:08:51.135Z,95373.98
2018-07-14T13:11:19.929Z,95379.70
2018-07-14T13:13:48.633Z,95367.95
2018-07-14T13:16:17.362Z,95367.23
2018-07-14T13:18:46.092Z,95363.50
2018-07-14T13:21:14.768Z,95361.87
2018-07-14T13:23:43.470Z,95352.30
2018-07-14T13:26:12.224Z,95353.76
2018-07-14T13:28:40.928Z,95360.83
2018-07-14T13:31:09.615Z,95363.60
2018-07-14T13:33:38.565Z,95351.05
2018-07-14T13:36:07.256Z,95358.23
2018-07-14T13:38:35.941Z,95351.23
2018-07-14T13:41:04.620Z,95354.50
2018-07-14T13:43:33.311Z,95348.19
2018-07-14T13:46:02.069Z,95344.05
2018-07-14T13:48:30.706Z,95346.80
2018-07-14T13:51:00.135Z,95339.73
2018-07-14T13:53:29.167Z,95330.56
2018-07-14T13:55:57.971Z,95338.36
2018-07-14T13:58:26.791Z,95337.39
2018-07-14T14:00:55.635Z,95336.43
2018-07-14T14:03:24.419Z,95326.23
2018-07-14T14:05:53.563Z,95324.94
2018-07-14T14:08:22.326Z,95320.95
2018-07-14T14:10:51.327Z,95332.62
2018-07-14T14:13:20.114Z,95329.00
2018-07-14T14:15:48.878Z,95329.52
2018-07-14T14:18:17.822Z,95317.24
2018-07-14T14:20:46.841Z,95327.55
2018-07-14T14:23:15.568Z,95325.99
2018-07-14T14:25:44.707Z,95322.96
2018-07-14T14:28:13.725Z,95324.67
2018-07-14T14:30:42.510Z,95339.22
2018-07-14T14:33:11.220Z,95327.45
2018-07-14T14:35:39.928Z,95334.45
2018-07-14T14:38:08.651Z,95331.84
2018-07-14T14:40:37.434Z,95327.96
2018-07-14T14:43:06.144Z,95321.75
2018-07-14T14:45:35.005Z,95321.22
2018-07-14T14:48:03.789Z,95317.25
2018-07-14T14:50:33.085Z,95316.13
2018-07-14T14:53:01.792Z,95314.09
2018-07-14T14:55:31.330Z,95311.38
2018-07-14T14:58:00.080Z,95310.17
2018-07-14T15:00:28.889Z,95306.70
2018-07-14T15:02:57.920Z,95307.48
2018-07-14T15:05:26.659Z,95311.53
2018-07-14T15:07:55.400Z,95306.53
2018-07-14T15:10:24.107Z,95300.92
2018-07-14T15:12:52.896Z,95298.23
2018-07-14T15:15:22.888Z,95303.08
2018-07-14T15:17:51.962Z,95303.58
2018-07-14T15:20:20.772Z,95295.44
2018-07-14T15:22:49.599Z,95301.69
2018-07-14T15:25:18.600Z,95300.80
2018-07-14T15:27:47.314Z,95294.31
2018-07-14T15:30:16.074Z,95303.48
2018-07-14T15:32:44.870Z,95305.37
2018-07-14T15:35:13.618Z,95303.02
2018-07-14T15:37:42.356Z,95296.28
2018-07-14T15:40:11.637Z,95297.95
2018-07-14T15:42:40.440Z,95297.80
2018-07-14T15:45:09.510Z,95292.52
2018-07-14T15:47:38.191Z,95294.27
2018-07-14T15:50:07.408Z,95180.86
2018-07-14T15:52:36.170Z,95298.49
2018-07-14T15:55:05.007Z,95290.15
2018-07-14T15:57:33.904Z,95292.33
2018-07-14T16:00:02.750Z,95284.61
2018-07-14T16:02:31.518Z,95287.56
2018-07-14T16:05:00.311Z,95286.00
2018-07-14T16:07:29.216Z,95286.42
2018-07-14T16:09:58.261Z,95284.53
2018-07-14T16:12:26.987Z,95288.61
2018-07-14T16:14:55.666Z,95288.21
2018-07-14T16:17:24.480Z,95291.66
2018-07-14T16:19:53.411Z,95290.96
2018-07-14T16:22:22.584Z,95283.70
2018-07-14T16:24:51.428Z,95286.74
2018-07-14T16:27:20.392Z,95291.03
2018-07-14T16:29:49.399Z,95287.66
2018-07-14T16:32:18.813Z,95285.48
2018-07-14T16:34:47.901Z,95288.00
2018-07-14T16:37:17.036Z,95294.47
2018-07-14T16:39:45.904Z,95285.76
2018-07-14T16:42:14.578Z,95292.50
2018-07-14T16:44:43.616Z,95285.40
2018-07-14T16:47:12.724Z,95295.92
2018-07-14T16:49:41.466Z,95294.55
2018-07-14T16:52:10.279Z,95285.70
2018-07-14T16:54:39.023Z,95288.13
2018-07-14T16:57:07.926Z,95293.27
2018-07-14T16:59:36.624Z,95300.11
2018-07-14T17:02:06.452Z,95296.66
2018-07-14T17:04:35.885Z,95140.73
2018-07-14T17:07:04.976Z,95302.23
2018-07-14T17:09:35.187Z,95299.52
2018-07-14T17:12:03.868Z,95289.34
2018-07-14T17:14:32.590Z,95295.42
2018-07-14T17:17:01.471Z,95289.61
2018-07-14T17:19:30.692Z,95296.59
2018-07-14T17:21:59.715Z,95294.52
2018-07-14T17:24:28.992Z,95302.93
2018-07-14T17:26:58.313Z,95294.95
2018-07-14T17:29:28.420Z,95295.27
2018-07-14T17:31:58.331Z,94877.70
2018-07-14T17:34:27.727Z,95294.59
2018-07-14T17:36:59.188Z,95298.02
2018-07-14T17:39:28.958Z,95290.98
2018-07-14T17:41:58.723Z,95298.55
2018-07-14T17:44:27.988Z,95300.17
2018-07-14T17:46:57.864Z,95300.14
2018-07-14T17:49:26.561Z,95302.00
2018-07-14T17:51:55.675Z,95308.54
2018-07-14T17:54:24.798Z,95306.26
2018-07-14T17:56:54.487Z,95300.86
2018-07-14T17:59:23.204Z,95306.84
2018-07-14T18:01:52.960Z,95303.35
2018-07-14T18:04:22.260Z,95305.98
2018-07-14T18:06:52.251Z,95307.24
2018-07-14T18:09:21.287Z,95314.58
2018-07-14T18:11:50.211Z,95317.20
2018-07-14T18:14:19.797Z,95315.08
2018-07-14T18:16:49.533Z,95322.83
2018-07-14T18:19:18.792Z,95323.13
2018-07-14T18:21:47.834Z,95329.70
2018-07-14T18:24:17.202Z,95329.14
2018-07-14T18:26:46.364Z,95328.62
2018-07-14T18:29:15.724Z,95327.50
2018-07-14T18:31:44.685Z,95334.33
2018-07-14T18:34:13.419Z,95333.05
2018-07-14T18:36:43.909Z,95338.78
2018-07-14T18:39:13.140Z,95334.52
2018-07-14T18:41:41.800Z,95345.63
2018-07-14T18:44:10.579Z,95358.04
2018-07-14T18:46:39.267Z,95349.19
2018-07-14T18:49:08.395Z,95355.12
2018-07-14T18:51:37.248Z,95370.57
2018-07-14T18:54:06.291Z,95372.20
2018-07-14T18:56:35.423Z,95367.19
2018-07-14T18:59:04.718Z,95366.31
2018-07-14T19:01:33.932Z,95363.02
2018-07-14T19:04:02.654Z,95368.81
2018-07-14T19:06:31.475Z,95371.42
2018-07-14T19:09:00.429Z,95375.08
2018-07-14T19:11:29.230Z,95384.28
2018-07-14T19:13:57.963Z,95381.55
2018-07-14T19:16:26.964Z,95381.23
2018-07-14T19:18:55.712Z,95384.16
2018-07-14T19:21:25.527Z,95383.81
2018-07-14T19:23:54.515Z,95358.72
2018-07-14T19:26:23.351Z,95392.91
2018-07-14T19:28:52.561Z,95391.75
2018-07-14T19:31:21.269Z,95395.88
2018-07-14T19:33:50.041Z,95404.39
2018-07-14T19:36:19.031Z,95404.39
2018-07-14T19:38:47.951Z,95402.69
2018-07-14T19:41:16.642Z,95401.54
2018-07-14T19:43:45.319Z,95407.44
2018-07-14T19:46:14.859Z,95405.87
2018-07-14T19:48:43.671Z,95410.03
2018-07-14T19:51:12.818Z,95406.33
2018-07-14T19:53:41.595Z,95414.95
2018-07-14T19:56:10.503Z,95419.50
2018-07-14T19:58:40.387Z,95419.70
2018-07-14T20:01:09.678Z,95420.75
2018-07-14T20:03:39.170Z,94779.90
2018-07-14T20:06:07.870Z,95407.27
2018-07-14T20:08:36.867Z,95414.34
2018-07-14T20:11:05.746Z,95413.92
2018-07-14T20:13:34.471Z,95414.52
2018-07-14T20:16:03.496Z,95422.38
2018-07-14T20:18:32.331Z,95429.23
2018-07-14T20:21:01.345Z,95421.38
2018-07-14T20:23:30.339Z,95426.12
2018-07-14T20:25:59.025Z,95428.31
2018-07-14T20:28:27.728Z,95427.31
2018-07-14T20:30:56.565Z,95432.26
2018-07-14T20:33:25.396Z,95435.59
2018-07-14T20:35:54.137Z,95431.12
2018-07-14T20:38:22.878Z,95427.61
2018-07-14T20:40:51.564Z,95425.86
2018-07-14T20:43:20.322Z,95424.69
2018-07-14T20:45:49.004Z,95420.60
2018-07-14T20:48:17.744Z,95423.37
2018-07-14T20:50:46.668Z,95425.55
2018-07-14T20:53:15.315Z,95422.02
2018-07-14T20:55:44.008Z,95435.53
2018-07-14T20:58:12.708Z,95424.17
2018-07-14T21:00:41.373Z,95424.97
2018-07-14T21:03:10.076Z,95424.97
2018-07-14T21:05:38.742Z,95433.02
2018-07-14T21:08:07.449Z,95429.11
2018-07-14T21:10:36.250Z,95427.33
2018-07-14T21:13:04.943Z,95424.79
2018-07-14T21:15:33.679Z,95432.61
2018-07-14T21:18:02.378Z,95429.68
2018-07-14T21:20:31.339Z,95425.38
2018-07-14T21:23:00.009Z,95426.16
2018-07-14T21:25:29.042Z,95425.56
2018-07-14T21:27:57.787Z,95423.82
2018-07-14T21:30:26.494Z,95423.41
2018-07-14T21:32:55.638Z,95416.17
2018-07-14T21:35:24.461Z,95415.97
2018-07-14T21:37:53.167Z,95415.79
2018-07-14T21:40:21.838Z,95415.98
2018-07-14T21:42:50.512Z,95423.64
2018-07-14T21:45:19.312Z,95424.81
2018-07-14T21:47:47.960Z,95419.55
2018-07-14T21:50:16.687Z,95415.83
2018-07-14T21:52:45.652Z,95421.48
2018-07-14T21:55:14.328Z,95418.15
2018-07-14T21:57:43.007Z,95418.15
2018-07-14T22:00:21.490Z,95411.10
2018-07-14T22:02:50.210Z,95417.58
2018-07-14T22:05:18.887Z,95427.17
2018-07-14T22:07:47.644Z,95410.92
2018-07-14T22:10:16.446Z,95408.95
2018-07-14T22:12:45.082Z,95408.19
2018-07-14T22:15:13.965Z,95407.59
2018-07-14T22:17:42.688Z,95397.98
2018-07-14T22:20:11.503Z,95405.59
2018-07-14T22:22:40.224Z,95400.70
2018-07-14T22:25:09.127Z,95408.88
2018-07-14T22:27:37.859Z,95400.09
2018-07-14T22:30:06.632Z,95400.28
2018-07-14T22:32:35.315Z,95404.59
2018-07-14T22:35:04.114Z,95408.49
2018-07-14T22:37:32.775Z,95405.36
2018-07-14T22:40:01.502Z,95402.22
2018-07-14T22:42:30.223Z,95402.84
2018-07-14T22:44:58.890Z,95402.02
2018-07-14T22:47:27.627Z,95406.33
2018-07-14T22:49:56.351Z,95409.66
2018-07-14T22:52:25.325Z,95406.10
2018-07-14T22:54:54.023Z,95398.86
2018-07-14T22:57:22.674Z,95406.09
2018-07-14T22:59:51.299Z,95404.91
2018-07-14T23:02:19.979Z,95408.22
2018-07-14T23:04:48.664Z,95411.38
2018-07-14T23:07:17.336Z,95404.91
2018-07-14T23:09:46.023Z,95405.11
2018-07-14T23:12:14.696Z,95404.16
2018-07-14T23:14:43.670Z,95410.42
2018-07-14T23:17:12.659Z,95414.92
2018-07-14T23:19:41.404Z,95419.22
2018-07-14T23:22:10.067Z,95409.23
2018-07-14T23:24:38.709Z,95409.64
2018-07-14T23:27:07.465Z,95406.10
2018-07-14T23:29:36.126Z,95412.39
2018-07-14T23:32:04.855Z,95417.45
2018-07-14T23:34:34.048Z,95414.92
2018-07-14T23:37:02.737Z,95416.49
2018-07-14T23:39:31.411Z,95411.03
2018-07-14T23:42:00.069Z,95424.93
2018-07-14T23:44:28.758Z,95421.58
2018-07-14T23:46:57.416Z,95417.89
2018-07-14T23:49:26.098Z,95410.26
2018-07-14T23:51:54.835Z,95410.45
2018-07-14T23:54:23.506Z,95403.02
2018-07-14T23:56:52.479Z,95394.62
2018-07-14T23:59:21.231Z,95397.36
